sensor_id;sensor_type;location;lat;lon;timestamp;P1;durP1;ratioP1;P2;durP2;ratioP2
77234;SDS011;66253;50.526;14.974;2023-10-13T00:02:12;17.30;;;9.10;;
77234;SDS011;66253;50.526;14.974;2023-10-13T00:04:40;15.90;;;8.80;;
77234;SDS011;66253;50.526;14.974;2023-10-13T00:07:09;17.40;;;9.10;;
77234;SDS011;66253;50.526;14.974;2023-10-13T00:09:37;18.50;;;9.10;;
77234;SDS011;66253;50.526;14.974;2023-10-13T00:12:07;15.80;;;9.70;;
77234;SDS011;66253;50.526;14.974;2023-10-13T00:14:35;16.10;;;9.90;;
77234;SDS011;66253;50.526;14.974;2023-10-13T00:17:04;15.20;;;8.40;;
77234;SDS011;66253;50.526;14.974;2023-10-13T00:19:33;15.50;;;9.10;;
77234;SDS011;66253;50.526;14.974;2023-10-13T00:22:02;16.70;;;8.60;;
77234;SDS011;66253;50.526;14.974;2023-10-13T00:24:31;16.00;;;8.90;;
77234;SDS011;66253;50.526;14.974;2023-10-13T00:26:59;15.20;;;8.90;;
77234;SDS011;66253;50.526;14.974;2023-10-13T00:29:29;22.50;;;10.00;;
77234;SDS011;66253;50.526;14.974;2023-10-13T00:31:57;14.60;;;7.70;;
77234;SDS011;66253;50.526;14.974;2023-10-13T00:34:25;18.00;;;10.80;;
77234;SDS011;66253;50.526;14.974;2023-10-13T00:36:54;17.30;;;9.50;;
77234;SDS011;66253;50.526;14.974;2023-10-13T00:39:22;19.40;;;10.80;;
77234;SDS011;66253;50.526;14.974;2023-10-13T00:41:50;22.90;;;10.40;;
77234;SDS011;66253;50.526;14.974;2023-10-13T00:44:19;22.10;;;10.50;;
77234;SDS011;66253;50.526;14.974;2023-10-13T00:46:47;21.10;;;10.20;;
77234;SDS011;66253;50.526;14.974;2023-10-13T00:49:15;20.30;;;9.00;;
77234;SDS011;66253;50.526;14.974;2023-10-13T00:51:45;16.70;;;8.80;;
77234;SDS011;66253;50.526;14.974;2023-10-13T00:54:13;20.50;;;9.60;;
77234;SDS011;66253;50.526;14.974;2023-10-13T00:56:43;16.50;;;8.30;;
77234;SDS011;66253;50.526;14.974;2023-10-13T00:59:14;14.60;;;8.00;;
77234;SDS011;66253;50.526;14.974;2023-10-13T01:01:43;14.40;;;7.10;;
77234;SDS011;66253;50.526;14.974;2023-10-13T01:04:15;12.70;;;7.20;;
77234;SDS011;66253;50.526;14.974;2023-10-13T01:06:44;12.20;;;6.80;;
77234;SDS011;66253;50.526;14.974;2023-10-13T01:09:13;9.70;;;5.40;;
77234;SDS011;66253;50.526;14.974;2023-10-13T01:11:44;14.00;;;5.80;;
77234;SDS011;66253;50.526;14.974;2023-10-13T01:14:13;12.40;;;6.00;;
77234;SDS011;66253;50.526;14.974;2023-10-13T01:16:41;12.50;;;6.80;;
77234;SDS011;66253;50.526;14.974;2023-10-13T01:19:10;11.10;;;6.80;;
77234;SDS011;66253;50.526;14.974;2023-10-13T01:21:39;11.40;;;6.30;;
77234;SDS011;66253;50.526;14.974;2023-10-13T01:24:08;10.50;;;5.60;;
77234;SDS011;66253;50.526;14.974;2023-10-13T01:26:37;10.40;;;5.10;;
77234;SDS011;66253;50.526;14.974;2023-10-13T01:29:06;9.80;;;5.50;;
77234;SDS011;66253;50.526;14.974;2023-10-13T01:31:34;9.90;;;5.20;;
77234;SDS011;66253;50.526;14.974;2023-10-13T01:34:03;10.50;;;5.60;;
77234;SDS011;66253;50.526;14.974;2023-10-13T01:36:31;10.10;;;4.90;;
77234;SDS011;66253;50.526;14.974;2023-10-13T01:38:59;11.30;;;5.90;;
77234;SDS011;66253;50.526;14.974;2023-10-13T01:41:28;11.20;;;5.90;;
77234;SDS011;66253;50.526;14.974;2023-10-13T01:43:56;14.50;;;8.80;;
77234;SDS011;66253;50.526;14.974;2023-10-13T01:46:24;12.40;;;8.40;;
77234;SDS011;66253;50.526;14.974;2023-10-13T01:48:53;12.00;;;8.20;;
77234;SDS011;66253;50.526;14.974;2023-10-13T01:51:21;11.40;;;6.50;;
77234;SDS011;66253;50.526;14.974;2023-10-13T01:53:49;11.00;;;5.60;;
77234;SDS011;66253;50.526;14.974;2023-10-13T01:56:17;9.70;;;5.00;;
77234;SDS011;66253;50.526;14.974;2023-10-13T01:58:46;10.30;;;6.30;;
77234;SDS011;66253;50.526;14.974;2023-10-13T02:01:14;10.70;;;5.80;;
77234;SDS011;66253;50.526;14.974;2023-10-13T02:03:42;10.50;;;6.10;;
77234;SDS011;66253;50.526;14.974;2023-10-13T02:06:10;9.90;;;5.90;;
77234;SDS011;66253;50.526;14.974;2023-10-13T02:08:39;9.10;;;5.10;;
77234;SDS011;66253;50.526;14.974;2023-10-13T02:11:07;13.60;;;6.80;;
77234;SDS011;66253;50.526;14.974;2023-10-13T02:13:35;12.40;;;6.40;;
77234;SDS011;66253;50.526;14.974;2023-10-13T02:16:03;15.50;;;6.80;;
77234;SDS011;66253;50.526;14.974;2023-10-13T02:18:32;14.20;;;7.50;;
77234;SDS011;66253;50.526;14.974;2023-10-13T02:21:02;15.30;;;8.70;;
77234;SDS011;66253;50.526;14.974;2023-10-13T02:23:30;19.40;;;10.60;;
77234;SDS011;66253;50.526;14.974;2023-10-13T02:26:00;22.00;;;11.70;;
77234;SDS011;66253;50.526;14.974;2023-10-13T02:28:29;18.30;;;10.50;;
77234;SDS011;66253;50.526;14.974;2023-10-13T02:30:57;19.60;;;11.00;;
77234;SDS011;66253;50.526;14.974;2023-10-13T02:33:29;32.10;;;13.40;;
77234;SDS011;66253;50.526;14.974;2023-10-13T02:35:58;34.30;;;15.10;;
77234;SDS011;66253;50.526;14.974;2023-10-13T02:38:27;43.30;;;18.50;;
77234;SDS011;66253;50.526;14.974;2023-10-13T02:40:55;42.40;;;18.70;;
77234;SDS011;66253;50.526;14.974;2023-10-13T02:43:24;45.10;;;18.80;;
77234;SDS011;66253;50.526;14.974;2023-10-13T02:45:55;55.70;;;24.40;;
77234;SDS011;66253;50.526;14.974;2023-10-13T02:48:23;34.10;;;14.80;;
77234;SDS011;66253;50.526;14.974;2023-10-13T02:50:56;40.60;;;16.00;;
77234;SDS011;66253;50.526;14.974;2023-10-13T02:53:25;43.80;;;17.50;;
77234;SDS011;66253;50.526;14.974;2023-10-13T02:55:55;40.10;;;16.40;;
77234;SDS011;66253;50.526;14.974;2023-10-13T02:58:23;27.20;;;12.10;;
77234;SDS011;66253;50.526;14.974;2023-10-13T03:00:52;27.60;;;12.10;;
77234;SDS011;66253;50.526;14.974;2023-10-13T03:03:20;24.50;;;11.80;;
77234;SDS011;66253;50.526;14.974;2023-10-13T03:05:48;27.40;;;13.20;;
77234;SDS011;66253;50.526;14.974;2023-10-13T03:08:16;37.60;;;15.90;;
77234;SDS011;66253;50.526;14.974;2023-10-13T03:10:45;31.30;;;14.00;;
77234;SDS011;66253;50.526;14.974;2023-10-13T03:13:13;30.00;;;13.50;;
77234;SDS011;66253;50.526;14.974;2023-10-13T03:15:41;26.30;;;12.30;;
77234;SDS011;66253;50.526;14.974;2023-10-13T03:18:09;22.60;;;11.50;;
77234;SDS011;66253;50.526;14.974;2023-10-13T03:20:39;20.10;;;10.00;;
77234;SDS011;66253;50.526;14.974;2023-10-13T03:23:07;23.80;;;11.30;;
77234;SDS011;66253;50.526;14.974;2023-10-13T03:25:35;25.30;;;11.10;;
77234;SDS011;66253;50.526;14.974;2023-10-13T03:28:04;21.00;;;10.50;;
77234;SDS011;66253;50.526;14.974;2023-10-13T03:30:33;25.60;;;10.50;;
77234;SDS011;66253;50.526;14.974;2023-10-13T03:33:01;16.40;;;7.90;;
77234;SDS011;66253;50.526;14.974;2023-10-13T03:35:30;15.40;;;7.80;;
77234;SDS011;66253;50.526;14.974;2023-10-13T03:37:58;12.70;;;7.00;;
77234;SDS011;66253;50.526;14.974;2023-10-13T03:40:27;14.50;;;8.10;;
77234;SDS011;66253;50.526;14.974;2023-10-13T03:42:55;16.40;;;7.40;;
77234;SDS011;66253;50.526;14.974;2023-10-13T03:45:24;16.30;;;7.30;;
77234;SDS011;66253;50.526;14.974;2023-10-13T03:47:53;9.90;;;6.40;;
77234;SDS011;66253;50.526;14.974;2023-10-13T03:50:21;12.40;;;6.60;;
77234;SDS011;66253;50.526;14.974;2023-10-13T03:52:50;14.80;;;7.10;;
77234;SDS011;66253;50.526;14.974;2023-10-13T03:55:18;13.50;;;6.90;;
77234;SDS011;66253;50.526;14.974;2023-10-13T03:57:46;11.60;;;6.60;;
77234;SDS011;66253;50.526;14.974;2023-10-13T04:00:15;14.20;;;7.20;;
77234;SDS011;66253;50.526;14.974;2023-10-13T04:02:44;13.80;;;6.40;;
77234;SDS011;66253;50.526;14.974;2023-10-13T04:05:12;11.10;;;6.60;;
77234;SDS011;66253;50.526;14.974;2023-10-13T04:07:40;13.50;;;7.20;;
77234;SDS011;66253;50.526;14.974;2023-10-13T04:10:09;12.70;;;6.70;;
77234;SDS011;66253;50.526;14.974;2023-10-13T04:12:37;13.60;;;7.20;;
77234;SDS011;66253;50.526;14.974;2023-10-13T04:15:06;13.00;;;6.70;;
77234;SDS011;66253;50.526;14.974;2023-10-13T04:17:35;13.20;;;6.60;;
77234;SDS011;66253;50.526;14.974;2023-10-13T04:20:04;10.80;;;7.00;;
77234;SDS011;66253;50.526;14.974;2023-10-13T04:22:33;14.40;;;6.60;;
77234;SDS011;66253;50.526;14.974;2023-10-13T04:25:02;13.80;;;7.30;;
77234;SDS011;66253;50.526;14.974;2023-10-13T04:27:31;16.20;;;7.60;;
77234;SDS011;66253;50.526;14.974;2023-10-13T04:30:00;15.40;;;8.40;;
77234;SDS011;66253;50.526;14.974;2023-10-13T04:32:30;13.40;;;6.40;;
77234;SDS011;66253;50.526;14.974;2023-10-13T04:34:59;12.80;;;6.80;;
77234;SDS011;66253;50.526;14.974;2023-10-13T04:37:30;13.00;;;7.00;;
77234;SDS011;66253;50.526;14.974;2023-10-13T04:39:58;10.60;;;6.50;;
77234;SDS011;66253;50.526;14.974;2023-10-13T04:42:29;11.00;;;6.60;;
77234;SDS011;66253;50.526;14.974;2023-10-13T04:44:57;13.30;;;6.10;;
77234;SDS011;66253;50.526;14.974;2023-10-13T04:47:25;10.10;;;5.70;;
77234;SDS011;66253;50.526;14.974;2023-10-13T04:49:54;11.30;;;6.30;;
77234;SDS011;66253;50.526;14.974;2023-10-13T04:52:22;16.00;;;6.70;;
77234;SDS011;66253;50.526;14.974;2023-10-13T04:54:50;11.30;;;6.40;;
77234;SDS011;66253;50.526;14.974;2023-10-13T04:57:19;11.50;;;6.40;;
77234;SDS011;66253;50.526;14.974;2023-10-13T04:59:48;13.90;;;6.90;;
77234;SDS011;66253;50.526;14.974;2023-10-13T05:02:17;13.00;;;7.00;;
77234;SDS011;66253;50.526;14.974;2023-10-13T05:04:45;11.50;;;6.40;;
77234;SDS011;66253;50.526;14.974;2023-10-13T05:07:14;12.80;;;7.10;;
77234;SDS011;66253;50.526;14.974;2023-10-13T05:09:42;11.10;;;6.10;;
77234;SDS011;66253;50.526;14.974;2023-10-13T05:12:10;13.00;;;7.00;;
77234;SDS011;66253;50.526;14.974;2023-10-13T05:14:39;11.60;;;6.00;;
77234;SDS011;66253;50.526;14.974;2023-10-13T05:17:10;10.10;;;5.30;;
77234;SDS011;66253;50.526;14.974;2023-10-13T05:19:38;14.40;;;6.50;;
77234;SDS011;66253;50.526;14.974;2023-10-13T05:22:07;11.70;;;6.70;;
77234;SDS011;66253;50.526;14.974;2023-10-13T05:24:35;11.60;;;5.10;;
77234;SDS011;66253;50.526;14.974;2023-10-13T05:27:03;9.90;;;5.60;;
77234;SDS011;66253;50.526;14.974;2023-10-13T05:29:32;14.40;;;7.20;;
77234;SDS011;66253;50.526;14.974;2023-10-13T05:32:00;12.10;;;6.00;;
77234;SDS011;66253;50.526;14.974;2023-10-13T05:34:29;14.60;;;5.90;;
77234;SDS011;66253;50.526;14.974;2023-10-13T05:36:57;14.00;;;5.60;;
77234;SDS011;66253;50.526;14.974;2023-10-13T05:39:25;14.20;;;6.00;;
77234;SDS011;66253;50.526;14.974;2023-10-13T05:41:53;11.10;;;6.00;;
77234;SDS011;66253;50.526;14.974;2023-10-13T05:44:22;10.80;;;6.10;;
77234;SDS011;66253;50.526;14.974;2023-10-13T05:46:50;14.60;;;6.70;;
77234;SDS011;66253;50.526;14.974;2023-10-13T05:49:18;16.30;;;6.60;;
77234;SDS011;66253;50.526;14.974;2023-10-13T05:51:46;12.70;;;6.20;;
77234;SDS011;66253;50.526;14.974;2023-10-13T05:54:15;14.20;;;7.40;;
77234;SDS011;66253;50.526;14.974;2023-10-13T05:56:44;14.10;;;7.00;;
77234;SDS011;66253;50.526;14.974;2023-10-13T05:59:14;11.10;;;6.00;;
77234;SDS011;66253;50.526;14.974;2023-10-13T06:01:42;12.60;;;6.30;;
77234;SDS011;66253;50.526;14.974;2023-10-13T06:04:10;12.00;;;6.20;;
77234;SDS011;66253;50.526;14.974;2023-10-13T06:06:38;11.30;;;6.60;;
77234;SDS011;66253;50.526;14.974;2023-10-13T06:09:07;12.30;;;7.10;;
77234;SDS011;66253;50.526;14.974;2023-10-13T06:11:35;11.20;;;6.00;;
77234;SDS011;66253;50.526;14.974;2023-10-13T06:14:03;11.90;;;6.40;;
77234;SDS011;66253;50.526;14.974;2023-10-13T06:16:31;11.30;;;6.20;;
77234;SDS011;66253;50.526;14.974;2023-10-13T06:19:00;11.20;;;6.40;;
77234;SDS011;66253;50.526;14.974;2023-10-13T06:21:29;9.50;;;6.00;;
77234;SDS011;66253;50.526;14.974;2023-10-13T06:23:57;12.40;;;6.80;;
77234;SDS011;66253;50.526;14.974;2023-10-13T06:26:25;12.20;;;6.60;;
77234;SDS011;66253;50.526;14.974;2023-10-13T06:28:54;10.90;;;5.70;;
77234;SDS011;66253;50.526;14.974;2023-10-13T06:31:22;10.60;;;5.70;;
77234;SDS011;66253;50.526;14.974;2023-10-13T06:33:51;11.30;;;6.30;;
77234;SDS011;66253;50.526;14.974;2023-10-13T06:36:19;12.10;;;6.60;;
77234;SDS011;66253;50.526;14.974;2023-10-13T06:38:47;11.40;;;5.50;;
77234;SDS011;66253;50.526;14.974;2023-10-13T06:41:17;10.30;;;5.90;;
77234;SDS011;66253;50.526;14.974;2023-10-13T06:43:46;9.70;;;6.00;;
77234;SDS011;66253;50.526;14.974;2023-10-13T06:46:14;13.10;;;7.30;;
77234;SDS011;66253;50.526;14.974;2023-10-13T06:48:42;10.60;;;5.90;;
77234;SDS011;66253;50.526;14.974;2023-10-13T06:51:11;11.10;;;5.90;;
77234;SDS011;66253;50.526;14.974;2023-10-13T06:53:39;13.20;;;6.50;;
77234;SDS011;66253;50.526;14.974;2023-10-13T06:56:07;11.20;;;6.50;;
77234;SDS011;66253;50.526;14.974;2023-10-13T06:58:36;11.90;;;5.70;;
77234;SDS011;66253;50.526;14.974;2023-10-13T07:01:07;13.60;;;6.70;;
77234;SDS011;66253;50.526;14.974;2023-10-13T07:03:35;13.70;;;7.40;;
77234;SDS011;66253;50.526;14.974;2023-10-13T07:06:05;11.00;;;6.70;;
77234;SDS011;66253;50.526;14.974;2023-10-13T07:08:33;13.00;;;7.50;;
77234;SDS011;66253;50.526;14.974;2023-10-13T07:11:01;10.90;;;7.40;;
77234;SDS011;66253;50.526;14.974;2023-10-13T07:13:30;12.20;;;8.50;;
77234;SDS011;66253;50.526;14.974;2023-10-13T07:15:59;14.40;;;7.90;;
77234;SDS011;66253;50.526;14.974;2023-10-13T07:18:28;12.40;;;8.00;;
77234;SDS011;66253;50.526;14.974;2023-10-13T07:20:57;12.30;;;7.80;;
77234;SDS011;66253;50.526;14.974;2023-10-13T07:23:25;14.40;;;8.30;;
77234;SDS011;66253;50.526;14.974;2023-10-13T07:25:54;13.10;;;7.40;;
77234;SDS011;66253;50.526;14.974;2023-10-13T07:28:23;14.30;;;8.40;;
77234;SDS011;66253;50.526;14.974;2023-10-13T07:30:51;14.00;;;8.30;;
77234;SDS011;66253;50.526;14.974;2023-10-13T07:33:20;17.80;;;8.70;;
77234;SDS011;66253;50.526;14.974;2023-10-13T07:36:00;16.80;;;8.30;;
77234;SDS011;66253;50.526;14.974;2023-10-13T07:38:32;14.50;;;8.80;;
77234;SDS011;66253;50.526;14.974;2023-10-13T07:41:00;13.90;;;8.70;;
77234;SDS011;66253;50.526;14.974;2023-10-13T07:43:30;14.70;;;8.60;;
77234;SDS011;66253;50.526;14.974;2023-10-13T07:45:58;15.00;;;9.50;;
77234;SDS011;66253;50.526;14.974;2023-10-13T07:48:27;15.00;;;8.90;;
77234;SDS011;66253;50.526;14.974;2023-10-13T07:51:02;17.30;;;9.10;;
77234;SDS011;66253;50.526;14.974;2023-10-13T07:55:58;17.40;;;7.80;;
77234;SDS011;66253;50.526;14.974;2023-10-13T07:58:26;15.10;;;8.10;;
77234;SDS011;66253;50.526;14.974;2023-10-13T08:00:55;16.00;;;8.00;;
77234;SDS011;66253;50.526;14.974;2023-10-13T08:03:23;17.00;;;8.20;;
77234;SDS011;66253;50.526;14.974;2023-10-13T08:05:53;14.60;;;8.10;;
77234;SDS011;66253;50.526;14.974;2023-10-13T08:10:48;13.10;;;7.00;;
77234;SDS011;66253;50.526;14.974;2023-10-13T08:13:16;17.40;;;7.70;;
77234;SDS011;66253;50.526;14.974;2023-10-13T08:15:44;13.40;;;6.50;;
77234;SDS011;66253;50.526;14.974;2023-10-13T08:18:13;13.80;;;7.70;;
77234;SDS011;66253;50.526;14.974;2023-10-13T08:20:41;13.10;;;7.60;;
77234;SDS011;66253;50.526;14.974;2023-10-13T08:23:09;14.00;;;7.80;;
77234;SDS011;66253;50.526;14.974;2023-10-13T08:25:37;12.60;;;7.10;;
77234;SDS011;66253;50.526;14.974;2023-10-13T08:28:06;12.90;;;7.10;;
77234;SDS011;66253;50.526;14.974;2023-10-13T08:30:34;13.40;;;6.90;;
77234;SDS011;66253;50.526;14.974;2023-10-13T08:33:03;14.20;;;7.60;;
77234;SDS011;66253;50.526;14.974;2023-10-13T08:35:31;11.70;;;6.70;;
77234;SDS011;66253;50.526;14.974;2023-10-13T08:38:00;11.50;;;6.60;;
77234;SDS011;66253;50.526;14.974;2023-10-13T08:40:29;12.80;;;6.20;;
77234;SDS011;66253;50.526;14.974;2023-10-13T08:42:57;12.20;;;6.30;;
77234;SDS011;66253;50.526;14.974;2023-10-13T08:45:29;14.50;;;6.40;;
77234;SDS011;66253;50.526;14.974;2023-10-13T08:47:58;12.00;;;5.80;;
77234;SDS011;66253;50.526;14.974;2023-10-13T08:50:27;11.30;;;6.60;;
77234;SDS011;66253;50.526;14.974;2023-10-13T08:52:56;14.20;;;6.30;;
77234;SDS011;66253;50.526;14.974;2023-10-13T08:55:24;13.90;;;6.70;;
77234;SDS011;66253;50.526;14.974;2023-10-13T08:57:53;14.40;;;6.30;;
77234;SDS011;66253;50.526;14.974;2023-10-13T09:00:22;13.20;;;7.30;;
77234;SDS011;66253;50.526;14.974;2023-10-13T09:02:50;13.80;;;6.80;;
77234;SDS011;66253;50.526;14.974;2023-10-13T09:05:18;13.10;;;5.70;;
77234;SDS011;66253;50.526;14.974;2023-10-13T09:07:48;10.70;;;5.30;;
77234;SDS011;66253;50.526;14.974;2023-10-13T09:10:23;12.00;;;6.00;;
77234;SDS011;66253;50.526;14.974;2023-10-13T09:12:54;11.30;;;5.90;;
77234;SDS011;66253;50.526;14.974;2023-10-13T09:15:27;12.60;;;6.50;;
77234;SDS011;66253;50.526;14.974;2023-10-13T09:17:56;10.70;;;5.50;;
77234;SDS011;66253;50.526;14.974;2023-10-13T09:20:31;10.40;;;5.00;;
77234;SDS011;66253;50.526;14.974;2023-10-13T09:22:59;11.30;;;5.40;;
77234;SDS011;66253;50.526;14.974;2023-10-13T09:25:37;10.20;;;5.20;;
77234;SDS011;66253;50.526;14.974;2023-10-13T09:28:11;10.60;;;5.20;;
77234;SDS011;66253;50.526;14.974;2023-10-13T09:30:43;11.50;;;6.20;;
77234;SDS011;66253;50.526;14.974;2023-10-13T09:33:13;14.40;;;5.90;;
77234;SDS011;66253;50.526;14.974;2023-10-13T09:35:45;12.00;;;5.20;;
77234;SDS011;66253;50.526;14.974;2023-10-13T09:38:14;10.70;;;5.40;;
77234;SDS011;66253;50.526;14.974;2023-10-13T09:40:43;10.10;;;4.90;;
77234;SDS011;66253;50.526;14.974;2023-10-13T09:43:12;12.00;;;5.00;;
77234;SDS011;66253;50.526;14.974;2023-10-13T09:45:40;11.70;;;5.50;;
77234;SDS011;66253;50.526;14.974;2023-10-13T09:48:09;10.20;;;4.90;;
77234;SDS011;66253;50.526;14.974;2023-10-13T09:50:38;11.80;;;4.80;;
77234;SDS011;66253;50.526;14.974;2023-10-13T09:53:09;8.90;;;4.70;;
77234;SDS011;66253;50.526;14.974;2023-10-13T09:58:08;10.50;;;3.60;;
77234;SDS011;66253;50.526;14.974;2023-10-13T10:00:44;9.20;;;4.70;;
77234;SDS011;66253;50.526;14.974;2023-10-13T10:03:17;9.60;;;4.50;;
77234;SDS011;66253;50.526;14.974;2023-10-13T10:05:55;8.20;;;3.70;;
77234;SDS011;66253;50.526;14.974;2023-10-13T10:08:27;9.10;;;4.40;;
77234;SDS011;66253;50.526;14.974;2023-10-13T10:11:04;9.20;;;5.50;;
77234;SDS011;66253;50.526;14.974;2023-10-13T10:13:52;8.10;;;4.00;;
77234;SDS011;66253;50.526;14.974;2023-10-13T10:16:37;7.70;;;3.80;;
77234;SDS011;66253;50.526;14.974;2023-10-13T10:19:10;7.90;;;4.40;;
77234;SDS011;66253;50.526;14.974;2023-10-13T10:21:38;11.90;;;4.80;;
77234;SDS011;66253;50.526;14.974;2023-10-13T10:24:14;11.60;;;5.60;;
77234;SDS011;66253;50.526;14.974;2023-10-13T10:26:51;10.70;;;4.20;;
77234;SDS011;66253;50.526;14.974;2023-10-13T10:29:19;8.80;;;4.40;;
77234;SDS011;66253;50.526;14.974;2023-10-13T10:31:48;8.60;;;4.70;;
77234;SDS011;66253;50.526;14.974;2023-10-13T10:34:16;8.40;;;3.80;;
77234;SDS011;66253;50.526;14.974;2023-10-13T10:36:56;8.50;;;3.80;;
77234;SDS011;66253;50.526;14.974;2023-10-13T10:39:34;10.50;;;4.10;;
77234;SDS011;66253;50.526;14.974;2023-10-13T10:42:09;9.70;;;3.50;;
77234;SDS011;66253;50.526;14.974;2023-10-13T10:44:41;8.20;;;3.60;;
77234;SDS011;66253;50.526;14.974;2023-10-13T10:47:10;8.70;;;3.50;;
77234;SDS011;66253;50.526;14.974;2023-10-13T10:49:39;9.20;;;4.00;;
77234;SDS011;66253;50.526;14.974;2023-10-13T10:52:09;8.30;;;3.80;;
77234;SDS011;66253;50.526;14.974;2023-10-13T10:54:38;9.30;;;4.30;;
77234;SDS011;66253;50.526;14.974;2023-10-13T10:57:06;18.20;;;4.30;;
77234;SDS011;66253;50.526;14.974;2023-10-13T10:59:35;9.00;;;4.60;;
77234;SDS011;66253;50.526;14.974;2023-10-13T11:02:03;8.00;;;3.90;;
77234;SDS011;66253;50.526;14.974;2023-10-13T11:06:59;10.00;;;4.00;;
77234;SDS011;66253;50.526;14.974;2023-10-13T11:13:07;8.80;;;4.30;;
77234;SDS011;66253;50.526;14.974;2023-10-13T11:15:41;9.90;;;4.70;;
77234;SDS011;66253;50.526;14.974;2023-10-13T11:18:10;9.30;;;4.70;;
77234;SDS011;66253;50.526;14.974;2023-10-13T11:20:42;9.50;;;4.20;;
77234;SDS011;66253;50.526;14.974;2023-10-13T11:23:14;11.90;;;4.30;;
77234;SDS011;66253;50.526;14.974;2023-10-13T11:25:42;9.30;;;4.30;;
77234;SDS011;66253;50.526;14.974;2023-10-13T11:28:11;9.90;;;4.40;;
77234;SDS011;66253;50.526;14.974;2023-10-13T11:30:40;11.70;;;4.30;;
77234;SDS011;66253;50.526;14.974;2023-10-13T11:33:09;9.00;;;3.80;;
77234;SDS011;66253;50.526;14.974;2023-10-13T11:35:39;12.70;;;4.60;;
77234;SDS011;66253;50.526;14.974;2023-10-13T11:38:08;10.40;;;4.30;;
77234;SDS011;66253;50.526;14.974;2023-10-13T11:40:36;10.30;;;4.30;;
77234;SDS011;66253;50.526;14.974;2023-10-13T11:43:05;9.90;;;3.80;;
77234;SDS011;66253;50.526;14.974;2023-10-13T11:45:34;11.20;;;3.70;;
77234;SDS011;66253;50.526;14.974;2023-10-13T11:48:02;13.40;;;4.30;;
77234;SDS011;66253;50.526;14.974;2023-10-13T11:50:31;10.50;;;3.70;;
77234;SDS011;66253;50.526;14.974;2023-10-13T11:52:59;7.90;;;3.90;;
77234;SDS011;66253;50.526;14.974;2023-10-13T11:55:29;9.20;;;3.80;;
77234;SDS011;66253;50.526;14.974;2023-10-13T11:57:57;9.70;;;3.80;;
77234;SDS011;66253;50.526;14.974;2023-10-13T12:00:25;8.30;;;4.00;;
77234;SDS011;66253;50.526;14.974;2023-10-13T12:02:54;11.50;;;4.40;;
77234;SDS011;66253;50.526;14.974;2023-10-13T12:05:22;9.50;;;4.60;;
77234;SDS011;66253;50.526;14.974;2023-10-13T12:07:50;10.30;;;4.30;;
77234;SDS011;66253;50.526;14.974;2023-10-13T12:10:19;12.40;;;3.90;;
77234;SDS011;66253;50.526;14.974;2023-10-13T12:12:47;8.80;;;4.60;;
77234;SDS011;66253;50.526;14.974;2023-10-13T12:15:15;9.30;;;3.90;;
77234;SDS011;66253;50.526;14.974;2023-10-13T12:17:44;9.10;;;3.90;;
77234;SDS011;66253;50.526;14.974;2023-10-13T12:20:13;8.90;;;3.60;;
77234;SDS011;66253;50.526;14.974;2023-10-13T12:22:41;9.90;;;4.80;;
77234;SDS011;66253;50.526;14.974;2023-10-13T12:25:09;8.80;;;3.40;;
77234;SDS011;66253;50.526;14.974;2023-10-13T12:27:38;10.20;;;4.00;;
77234;SDS011;66253;50.526;14.974;2023-10-13T12:30:07;7.90;;;3.40;;
77234;SDS011;66253;50.526;14.974;2023-10-13T12:32:37;8.00;;;3.80;;
77234;SDS011;66253;50.526;14.974;2023-10-13T12:35:06;8.30;;;3.50;;
77234;SDS011;66253;50.526;14.974;2023-10-13T12:37:34;10.50;;;3.60;;
77234;SDS011;66253;50.526;14.974;2023-10-13T12:40:03;7.90;;;3.40;;
77234;SDS011;66253;50.526;14.974;2023-10-13T12:42:32;9.10;;;3.40;;
77234;SDS011;66253;50.526;14.974;2023-10-13T12:45:00;10.90;;;3.60;;
77234;SDS011;66253;50.526;14.974;2023-10-13T12:47:30;8.50;;;3.80;;
77234;SDS011;66253;50.526;14.974;2023-10-13T12:49:59;8.10;;;3.40;;
77234;SDS011;66253;50.526;14.974;2023-10-13T12:52:27;7.80;;;3.40;;
77234;SDS011;66253;50.526;14.974;2023-10-13T12:54:55;7.10;;;3.70;;
77234;SDS011;66253;50.526;14.974;2023-10-13T12:57:24;9.60;;;3.70;;
77234;SDS011;66253;50.526;14.974;2023-10-13T12:59:52;8.70;;;3.90;;
77234;SDS011;66253;50.526;14.974;2023-10-13T13:02:21;9.60;;;3.70;;
77234;SDS011;66253;50.526;14.974;2023-10-13T13:07:18;14.90;;;5.30;;
77234;SDS011;66253;50.526;14.974;2023-10-13T13:09:46;9.40;;;3.30;;
77234;SDS011;66253;50.526;14.974;2023-10-13T13:12:14;9.70;;;3.50;;
77234;SDS011;66253;50.526;14.974;2023-10-13T13:14:43;9.60;;;3.60;;
77234;SDS011;66253;50.526;14.974;2023-10-13T13:17:11;9.00;;;3.50;;
77234;SDS011;66253;50.526;14.974;2023-10-13T13:19:40;8.60;;;3.50;;
77234;SDS011;66253;50.526;14.974;2023-10-13T13:22:09;9.30;;;3.70;;
77234;SDS011;66253;50.526;14.974;2023-10-13T13:24:37;8.70;;;3.40;;
77234;SDS011;66253;50.526;14.974;2023-10-13T13:27:06;10.10;;;3.30;;
77234;SDS011;66253;50.526;14.974;2023-10-13T13:29:34;10.50;;;3.70;;
77234;SDS011;66253;50.526;14.974;2023-10-13T13:32:03;10.60;;;3.90;;
77234;SDS011;66253;50.526;14.974;2023-10-13T13:34:31;7.80;;;3.20;;
77234;SDS011;66253;50.526;14.974;2023-10-13T13:37:00;9.70;;;3.50;;
77234;SDS011;66253;50.526;14.974;2023-10-13T13:39:29;9.20;;;3.50;;
77234;SDS011;66253;50.526;14.974;2023-10-13T13:41:58;8.40;;;3.10;;
77234;SDS011;66253;50.526;14.974;2023-10-13T13:44:26;9.80;;;3.70;;
77234;SDS011;66253;50.526;14.974;2023-10-13T13:46:54;11.40;;;3.60;;
77234;SDS011;66253;50.526;14.974;2023-10-13T13:49:23;6.90;;;3.60;;
77234;SDS011;66253;50.526;14.974;2023-10-13T13:51:52;10.60;;;3.70;;
77234;SDS011;66253;50.526;14.974;2023-10-13T13:54:20;10.10;;;3.70;;
77234;SDS011;66253;50.526;14.974;2023-10-13T13:56:49;14.70;;;3.60;;
77234;SDS011;66253;50.526;14.974;2023-10-13T13:59:17;9.80;;;3.50;;
77234;SDS011;66253;50.526;14.974;2023-10-13T14:01:45;8.20;;;3.50;;
77234;SDS011;66253;50.526;14.974;2023-10-13T14:04:13;9.10;;;4.20;;
77234;SDS011;66253;50.526;14.974;2023-10-13T14:06:42;14.10;;;4.90;;
77234;SDS011;66253;50.526;14.974;2023-10-13T14:11:38;11.30;;;4.20;;
77234;SDS011;66253;50.526;14.974;2023-10-13T14:14:07;10.00;;;3.50;;
77234;SDS011;66253;50.526;14.974;2023-10-13T14:16:36;10.30;;;4.10;;
77234;SDS011;66253;50.526;14.974;2023-10-13T14:19:04;8.00;;;3.30;;
77234;SDS011;66253;50.526;14.974;2023-10-13T14:21:32;6.80;;;3.60;;
77234;SDS011;66253;50.526;14.974;2023-10-13T14:24:01;9.00;;;3.80;;
77234;SDS011;66253;50.526;14.974;2023-10-13T14:26:30;9.00;;;3.80;;
77234;SDS011;66253;50.526;14.974;2023-10-13T14:28:58;11.80;;;4.00;;
77234;SDS011;66253;50.526;14.974;2023-10-13T14:31:26;9.20;;;5.00;;
77234;SDS011;66253;50.526;14.974;2023-10-13T14:33:54;10.40;;;4.50;;
77234;SDS011;66253;50.526;14.974;2023-10-13T14:36:23;11.80;;;4.50;;
77234;SDS011;66253;50.526;14.974;2023-10-13T14:38:52;9.20;;;4.10;;
77234;SDS011;66253;50.526;14.974;2023-10-13T14:41:20;13.00;;;4.20;;
77234;SDS011;66253;50.526;14.974;2023-10-13T14:43:49;8.20;;;4.10;;
77234;SDS011;66253;50.526;14.974;2023-10-13T14:46:17;12.00;;;3.60;;
77234;SDS011;66253;50.526;14.974;2023-10-13T14:48:46;15.30;;;6.10;;
77234;SDS011;66253;50.526;14.974;2023-10-13T14:51:15;9.30;;;5.40;;
77234;SDS011;66253;50.526;14.974;2023-10-13T14:53:43;8.60;;;4.30;;